sensor_id;sensor_type;location;lat;lon;timestamp;P1;durP1;ratioP1;P2;durP2;ratioP2
65715;SDS011;63484;52.054;8.518;2023-06-19T00:00:31;9.27;;;6.25;;
65715;SDS011;63484;52.054;8.518;2023-06-19T00:05:34;8.93;;;6.15;;
65715;SDS011;63484;52.054;8.518;2023-06-19T00:10:36;9.05;;;6.40;;
65715;SDS011;63484;52.054;8.518;2023-06-19T00:15:37;8.98;;;6.25;;
65715;SDS011;63484;52.054;8.518;2023-06-19T00:20:40;8.57;;;6.20;;
65715;SDS011;63484;52.054;8.518;2023-06-19T00:25:46;9.40;;;6.70;;
65715;SDS011;63484;52.054;8.518;2023-06-19T00:30:47;7.85;;;6.20;;
65715;SDS011;63484;52.054;8.518;2023-06-19T00:35:51;8.23;;;6.82;;
65715;SDS011;63484;52.054;8.518;2023-06-19T00:40:54;8.35;;;6.35;;
65715;SDS011;63484;52.054;8.518;2023-06-19T00:45:56;9.27;;;6.60;;
65715;SDS011;63484;52.054;8.518;2023-06-19T00:51:00;8.03;;;6.30;;
65715;SDS011;63484;52.054;8.518;2023-06-19T00:56:02;7.75;;;6.18;;
65715;SDS011;63484;52.054;8.518;2023-06-19T01:01:05;7.72;;;5.75;;
65715;SDS011;63484;52.054;8.518;2023-06-19T01:06:09;8.23;;;6.20;;
65715;SDS011;63484;52.054;8.518;2023-06-19T01:11:17;7.63;;;6.47;;
65715;SDS011;63484;52.054;8.518;2023-06-19T01:16:23;13.00;;;6.68;;
65715;SDS011;63484;52.054;8.518;2023-06-19T01:21:27;10.27;;;6.17;;
65715;SDS011;63484;52.054;8.518;2023-06-19T01:26:31;7.63;;;5.97;;
65715;SDS011;63484;52.054;8.518;2023-06-19T01:31:33;6.85;;;5.90;;
65715;SDS011;63484;52.054;8.518;2023-06-19T01:36:38;7.80;;;5.80;;
65715;SDS011;63484;52.054;8.518;2023-06-19T01:41:41;10.38;;;6.20;;
65715;SDS011;63484;52.054;8.518;2023-06-19T01:46:47;8.02;;;6.15;;
65715;SDS011;63484;52.054;8.518;2023-06-19T01:51:49;9.75;;;6.30;;
65715;SDS011;63484;52.054;8.518;2023-06-19T01:56:52;8.25;;;6.15;;
65715;SDS011;63484;52.054;8.518;2023-06-19T02:01:54;8.65;;;6.53;;
65715;SDS011;63484;52.054;8.518;2023-06-19T02:06:56;8.35;;;6.40;;
65715;SDS011;63484;52.054;8.518;2023-06-19T02:12:01;8.70;;;6.20;;
65715;SDS011;63484;52.054;8.518;2023-06-19T02:17:03;7.82;;;6.07;;
65715;SDS011;63484;52.054;8.518;2023-06-19T02:22:05;9.85;;;6.32;;
65715;SDS011;63484;52.054;8.518;2023-06-19T02:27:08;8.00;;;6.05;;
65715;SDS011;63484;52.054;8.518;2023-06-19T02:32:10;11.15;;;6.80;;
65715;SDS011;63484;52.054;8.518;2023-06-19T02:37:12;13.95;;;6.90;;
65715;SDS011;63484;52.054;8.518;2023-06-19T02:42:15;8.40;;;6.75;;
65715;SDS011;63484;52.054;8.518;2023-06-19T02:47:17;12.73;;;7.53;;
65715;SDS011;63484;52.054;8.518;2023-06-19T02:52:19;10.13;;;6.10;;
65715;SDS011;63484;52.054;8.518;2023-06-19T02:57:22;10.35;;;6.32;;
65715;SDS011;63484;52.054;8.518;2023-06-19T03:02:24;8.10;;;6.35;;
65715;SDS011;63484;52.054;8.518;2023-06-19T03:07:26;10.40;;;6.35;;
65715;SDS011;63484;52.054;8.518;2023-06-19T03:12:30;14.02;;;7.03;;
65715;SDS011;63484;52.054;8.518;2023-06-19T03:17:32;8.98;;;6.38;;
65715;SDS011;63484;52.054;8.518;2023-06-19T03:22:34;8.90;;;6.60;;
65715;SDS011;63484;52.054;8.518;2023-06-19T03:27:38;12.02;;;7.00;;
65715;SDS011;63484;52.054;8.518;2023-06-19T03:32:40;8.65;;;6.78;;
65715;SDS011;63484;52.054;8.518;2023-06-19T03:37:48;10.13;;;6.45;;
65715;SDS011;63484;52.054;8.518;2023-06-19T03:42:52;11.17;;;6.90;;
65715;SDS011;63484;52.054;8.518;2023-06-19T03:52:55;9.15;;;6.63;;
65715;SDS011;63484;52.054;8.518;2023-06-19T03:57:58;9.13;;;6.90;;
65715;SDS011;63484;52.054;8.518;2023-06-19T04:08:03;11.63;;;6.63;;
65715;SDS011;63484;52.054;8.518;2023-06-19T04:13:06;10.18;;;7.07;;
65715;SDS011;63484;52.054;8.518;2023-06-19T04:18:08;10.07;;;6.88;;
65715;SDS011;63484;52.054;8.518;2023-06-19T04:23:11;10.30;;;7.40;;
65715;SDS011;63484;52.054;8.518;2023-06-19T04:28:14;11.70;;;7.10;;
65715;SDS011;63484;52.054;8.518;2023-06-19T04:33:16;12.40;;;7.00;;
65715;SDS011;63484;52.054;8.518;2023-06-19T04:38:21;9.45;;;6.60;;
65715;SDS011;63484;52.054;8.518;2023-06-19T04:43:25;11.88;;;6.28;;
65715;SDS011;63484;52.054;8.518;2023-06-19T04:48:29;8.98;;;5.97;;
65715;SDS011;63484;52.054;8.518;2023-06-19T04:53:31;7.30;;;5.63;;
65715;SDS011;63484;52.054;8.518;2023-06-19T04:58:34;8.38;;;5.93;;
65715;SDS011;63484;52.054;8.518;2023-06-19T05:03:36;13.02;;;7.05;;
65715;SDS011;63484;52.054;8.518;2023-06-19T05:08:38;7.60;;;5.82;;
65715;SDS011;63484;52.054;8.518;2023-06-19T05:13:41;7.82;;;5.95;;
65715;SDS011;63484;52.054;8.518;2023-06-19T05:18:43;7.85;;;5.93;;
65715;SDS011;63484;52.054;8.518;2023-06-19T05:23:44;11.55;;;5.93;;
65715;SDS011;63484;52.054;8.518;2023-06-19T05:28:54;11.63;;;6.25;;
65715;SDS011;63484;52.054;8.518;2023-06-19T05:33:55;6.47;;;5.47;;
65715;SDS011;63484;52.054;8.518;2023-06-19T05:38:58;13.60;;;5.63;;
65715;SDS011;63484;52.054;8.518;2023-06-19T05:44:01;7.40;;;4.97;;
65715;SDS011;63484;52.054;8.518;2023-06-19T05:54:05;5.82;;;4.68;;
65715;SDS011;63484;52.054;8.518;2023-06-19T05:59:08;8.30;;;4.38;;
65715;SDS011;63484;52.054;8.518;2023-06-19T06:09:11;6.75;;;4.45;;
65715;SDS011;63484;52.054;8.518;2023-06-19T06:14:14;5.35;;;4.20;;
65715;SDS011;63484;52.054;8.518;2023-06-19T06:24:18;9.07;;;4.40;;
65715;SDS011;63484;52.054;8.518;2023-06-19T06:29:23;7.70;;;3.67;;
65715;SDS011;63484;52.054;8.518;2023-06-19T06:39:26;5.38;;;3.50;;
65715;SDS011;63484;52.054;8.518;2023-06-19T06:44:29;4.78;;;3.17;;
65715;SDS011;63484;52.054;8.518;2023-06-19T06:54:41;3.83;;;3.05;;
65715;SDS011;63484;52.054;8.518;2023-06-19T06:59:45;6.30;;;3.30;;
65715;SDS011;63484;52.054;8.518;2023-06-19T07:04:47;4.28;;;2.75;;
65715;SDS011;63484;52.054;8.518;2023-06-19T07:09:50;5.15;;;2.55;;
65715;SDS011;63484;52.054;8.518;2023-06-19T07:14:54;8.80;;;2.40;;
65715;SDS011;63484;52.054;8.518;2023-06-19T07:25:01;8.93;;;2.50;;
65715;SDS011;63484;52.054;8.518;2023-06-19T07:30:07;4.15;;;2.95;;
65715;SDS011;63484;52.054;8.518;2023-06-19T07:35:09;6.38;;;2.08;;
65715;SDS011;63484;52.054;8.518;2023-06-19T07:40:13;4.57;;;2.50;;
65715;SDS011;63484;52.054;8.518;2023-06-19T07:45:14;3.38;;;2.40;;
65715;SDS011;63484;52.054;8.518;2023-06-19T07:50:16;4.78;;;2.80;;
65715;SDS011;63484;52.054;8.518;2023-06-19T07:55:19;3.85;;;2.55;;
65715;SDS011;63484;52.054;8.518;2023-06-19T08:00:21;3.08;;;2.20;;
65715;SDS011;63484;52.054;8.518;2023-06-19T08:05:23;5.80;;;2.70;;
65715;SDS011;63484;52.054;8.518;2023-06-19T08:10:26;2.67;;;2.40;;
65715;SDS011;63484;52.054;8.518;2023-06-19T08:15:27;3.38;;;2.47;;
65715;SDS011;63484;52.054;8.518;2023-06-19T08:20:29;4.47;;;2.80;;
65715;SDS011;63484;52.054;8.518;2023-06-19T08:25:32;3.40;;;2.80;;
65715;SDS011;63484;52.054;8.518;2023-06-19T08:30:34;4.65;;;3.05;;
65715;SDS011;63484;52.054;8.518;2023-06-19T08:35:35;3.80;;;2.95;;
65715;SDS011;63484;52.054;8.518;2023-06-19T08:40:39;5.65;;;3.08;;
65715;SDS011;63484;52.054;8.518;2023-06-19T08:45:42;3.67;;;3.08;;
65715;SDS011;63484;52.054;8.518;2023-06-19T08:50:46;3.97;;;2.92;;
65715;SDS011;63484;52.054;8.518;2023-06-19T08:55:49;5.77;;;4.20;;
65715;SDS011;63484;52.054;8.518;2023-06-19T09:00:51;6.60;;;4.28;;
65715;SDS011;63484;52.054;8.518;2023-06-19T09:05:54;5.43;;;4.10;;
65715;SDS011;63484;52.054;8.518;2023-06-19T09:16:01;4.25;;;3.85;;
65715;SDS011;63484;52.054;8.518;2023-06-19T09:21:04;5.85;;;3.40;;
65715;SDS011;63484;52.054;8.518;2023-06-19T09:26:07;5.45;;;3.88;;
65715;SDS011;63484;52.054;8.518;2023-06-19T09:31:10;6.43;;;3.75;;
65715;SDS011;63484;52.054;8.518;2023-06-19T09:36:12;4.10;;;3.70;;
65715;SDS011;63484;52.054;8.518;2023-06-19T09:41:16;5.53;;;3.65;;
65715;SDS011;63484;52.054;8.518;2023-06-19T09:46:22;3.55;;;3.25;;
65715;SDS011;63484;52.054;8.518;2023-06-19T09:51:30;3.97;;;3.47;;
65715;SDS011;63484;52.054;8.518;2023-06-19T09:56:37;3.72;;;3.35;;
65715;SDS011;63484;52.054;8.518;2023-06-19T10:01:40;3.78;;;3.45;;
65715;SDS011;63484;52.054;8.518;2023-06-19T10:06:43;4.53;;;3.08;;
65715;SDS011;63484;52.054;8.518;2023-06-19T10:16:54;5.25;;;4.05;;
65715;SDS011;63484;52.054;8.518;2023-06-19T10:21:56;3.92;;;3.40;;
65715;SDS011;63484;52.054;8.518;2023-06-19T10:27:00;5.65;;;4.10;;
65715;SDS011;63484;52.054;8.518;2023-06-19T10:32:03;5.35;;;3.40;;
65715;SDS011;63484;52.054;8.518;2023-06-19T10:37:05;4.77;;;3.70;;
65715;SDS011;63484;52.054;8.518;2023-06-19T10:42:09;4.63;;;3.10;;
65715;SDS011;63484;52.054;8.518;2023-06-19T10:47:11;3.45;;;3.10;;
65715;SDS011;63484;52.054;8.518;2023-06-19T10:52:13;6.88;;;3.03;;
65715;SDS011;63484;52.054;8.518;2023-06-19T10:57:17;5.75;;;3.10;;
65715;SDS011;63484;52.054;8.518;2023-06-19T11:02:19;4.75;;;3.70;;
65715;SDS011;63484;52.054;8.518;2023-06-19T11:07:23;5.18;;;4.68;;
65715;SDS011;63484;52.054;8.518;2023-06-19T11:12:27;9.77;;;4.13;;
65715;SDS011;63484;52.054;8.518;2023-06-19T11:17:28;3.85;;;3.30;;
65715;SDS011;63484;52.054;8.518;2023-06-19T11:22:38;3.60;;;3.30;;
65715;SDS011;63484;52.054;8.518;2023-06-19T11:27:44;5.80;;;2.63;;
65715;SDS011;63484;52.054;8.518;2023-06-19T11:32:52;2.50;;;2.30;;
65715;SDS011;63484;52.054;8.518;2023-06-19T11:37:53;4.03;;;2.05;;
65715;SDS011;63484;52.054;8.518;2023-06-19T11:42:56;5.28;;;2.80;;
65715;SDS011;63484;52.054;8.518;2023-06-19T11:47:58;4.45;;;2.85;;
65715;SDS011;63484;52.054;8.518;2023-06-19T11:53:02;3.63;;;2.58;;
65715;SDS011;63484;52.054;8.518;2023-06-19T11:58:05;3.22;;;2.85;;
65715;SDS011;63484;52.054;8.518;2023-06-19T12:03:07;3.50;;;2.50;;
65715;SDS011;63484;52.054;8.518;2023-06-19T12:08:12;3.03;;;2.78;;
65715;SDS011;63484;52.054;8.518;2023-06-19T12:13:15;2.67;;;2.47;;
65715;SDS011;63484;52.054;8.518;2023-06-19T12:18:16;5.63;;;2.58;;
65715;SDS011;63484;52.054;8.518;2023-06-19T12:23:18;3.40;;;2.72;;
65715;SDS011;63484;52.054;8.518;2023-06-19T12:28:23;5.43;;;2.45;;
65715;SDS011;63484;52.054;8.518;2023-06-19T12:33:25;2.55;;;2.35;;
65715;SDS011;63484;52.054;8.518;2023-06-19T12:38:33;3.15;;;2.22;;
65715;SDS011;63484;52.054;8.518;2023-06-19T12:43:40;2.47;;;2.10;;
65715;SDS011;63484;52.054;8.518;2023-06-19T12:48:42;2.60;;;2.40;;
65715;SDS011;63484;52.054;8.518;2023-06-19T12:53:43;3.23;;;2.43;;
65715;SDS011;63484;52.054;8.518;2023-06-19T12:58:46;4.25;;;2.67;;
65715;SDS011;63484;52.054;8.518;2023-06-19T13:03:50;2.92;;;2.50;;
65715;SDS011;63484;52.054;8.518;2023-06-19T13:08:52;5.00;;;2.40;;
65715;SDS011;63484;52.054;8.518;2023-06-19T13:13:55;2.93;;;2.60;;
65715;SDS011;63484;52.054;8.518;2023-06-19T13:18:57;3.70;;;2.63;;
65715;SDS011;63484;52.054;8.518;2023-06-19T13:23:59;5.13;;;2.50;;
65715;SDS011;63484;52.054;8.518;2023-06-19T13:29:02;5.85;;;2.60;;
65715;SDS011;63484;52.054;8.518;2023-06-19T13:34:06;3.33;;;2.55;;
65715;SDS011;63484;52.054;8.518;2023-06-19T13:39:07;9.40;;;3.43;;
65715;SDS011;63484;52.054;8.518;2023-06-19T13:44:10;2.90;;;2.60;;
65715;SDS011;63484;52.054;8.518;2023-06-19T13:49:12;4.70;;;3.20;;
65715;SDS011;63484;52.054;8.518;2023-06-19T13:54:14;4.00;;;2.90;;
65715;SDS011;63484;52.054;8.518;2023-06-19T13:59:17;3.50;;;3.03;;
65715;SDS011;63484;52.054;8.518;2023-06-19T14:04:19;4.63;;;3.22;;
65715;SDS011;63484;52.054;8.518;2023-06-19T14:09:23;3.50;;;3.20;;
65715;SDS011;63484;52.054;8.518;2023-06-19T14:14:26;6.10;;;3.00;;
65715;SDS011;63484;52.054;8.518;2023-06-19T14:19:28;3.22;;;2.92;;
65715;SDS011;63484;52.054;8.518;2023-06-19T14:24:30;3.33;;;3.00;;
65715;SDS011;63484;52.054;8.518;2023-06-19T14:29:33;4.70;;;3.20;;
65715;SDS011;63484;52.054;8.518;2023-06-19T14:34:35;4.50;;;2.95;;
65715;SDS011;63484;52.054;8.518;2023-06-19T14:39:38;4.57;;;3.40;;
65715;SDS011;63484;52.054;8.518;2023-06-19T14:44:41;4.30;;;3.13;;
65715;SDS011;63484;52.054;8.518;2023-06-19T14:49:43;3.30;;;3.00;;
65715;SDS011;63484;52.054;8.518;2023-06-19T14:54:45;3.10;;;2.80;;
65715;SDS011;63484;52.054;8.518;2023-06-19T14:59:48;3.73;;;3.17;;
65715;SDS011;63484;52.054;8.518;2023-06-19T15:04:50;4.38;;;3.20;;
65715;SDS011;63484;52.054;8.518;2023-06-19T15:09:51;4.30;;;3.50;;
65715;SDS011;63484;52.054;8.518;2023-06-19T15:14:54;3.53;;;3.15;;
65715;SDS011;63484;52.054;8.518;2023-06-19T15:19:56;4.85;;;3.60;;
65715;SDS011;63484;52.054;8.518;2023-06-19T15:25:00;5.15;;;3.63;;
65715;SDS011;63484;52.054;8.518;2023-06-19T15:30:04;4.03;;;3.63;;
65715;SDS011;63484;52.054;8.518;2023-06-19T15:35:07;6.22;;;3.80;;
65715;SDS011;63484;52.054;8.518;2023-06-19T15:40:11;6.50;;;3.45;;
65715;SDS011;63484;52.054;8.518;2023-06-19T15:45:17;4.45;;;3.10;;
65715;SDS011;63484;52.054;8.518;2023-06-19T15:50:19;5.15;;;3.75;;
65715;SDS011;63484;52.054;8.518;2023-06-19T15:55:21;4.57;;;3.90;;
65715;SDS011;63484;52.054;8.518;2023-06-19T16:00:24;5.28;;;3.72;;
65715;SDS011;63484;52.054;8.518;2023-06-19T16:05:26;5.95;;;3.60;;
65715;SDS011;63484;52.054;8.518;2023-06-19T16:10:30;4.55;;;3.30;;
65715;SDS011;63484;52.054;8.518;2023-06-19T16:15:33;4.22;;;3.40;;
65715;SDS011;63484;52.054;8.518;2023-06-19T16:20:35;4.18;;;3.40;;
65715;SDS011;63484;52.054;8.518;2023-06-19T16:25:37;5.25;;;2.97;;
65715;SDS011;63484;52.054;8.518;2023-06-19T16:30:40;6.80;;;3.15;;
65715;SDS011;63484;52.054;8.518;2023-06-19T16:35:42;3.75;;;3.00;;
65715;SDS011;63484;52.054;8.518;2023-06-19T16:40:46;6.32;;;3.45;;
65715;SDS011;63484;52.054;8.518;2023-06-19T16:45:51;4.05;;;3.17;;
65715;SDS011;63484;52.054;8.518;2023-06-19T16:50:53;5.10;;;3.40;;
65715;SDS011;63484;52.054;8.518;2023-06-19T16:55:55;3.72;;;3.05;;
65715;SDS011;63484;52.054;8.518;2023-06-19T17:00:58;3.60;;;3.10;;
65715;SDS011;63484;52.054;8.518;2023-06-19T17:06:00;3.15;;;2.72;;
65715;SDS011;63484;52.054;8.518;2023-06-19T17:11:01;7.65;;;3.00;;
65715;SDS011;63484;52.054;8.518;2023-06-19T17:16:04;3.53;;;2.65;;
65715;SDS011;63484;52.054;8.518;2023-06-19T17:21:06;3.90;;;2.85;;
65715;SDS011;63484;52.054;8.518;2023-06-19T17:26:08;3.25;;;2.80;;
65715;SDS011;63484;52.054;8.518;2023-06-19T17:31:13;5.25;;;2.88;;
65715;SDS011;63484;52.054;8.518;2023-06-19T17:36:15;3.97;;;3.10;;
65715;SDS011;63484;52.054;8.518;2023-06-19T17:41:17;6.05;;;2.88;;
65715;SDS011;63484;52.054;8.518;2023-06-19T17:46:20;4.90;;;2.70;;
65715;SDS011;63484;52.054;8.518;2023-06-19T17:51:22;4.43;;;2.60;;
65715;SDS011;63484;52.054;8.518;2023-06-19T17:56:25;4.20;;;2.85;;
65715;SDS011;63484;52.054;8.518;2023-06-19T18:01:28;3.03;;;2.70;;
65715;SDS011;63484;52.054;8.518;2023-06-19T18:06:29;4.90;;;3.13;;
65715;SDS011;63484;52.054;8.518;2023-06-19T18:11:31;5.20;;;3.10;;
65715;SDS011;63484;52.054;8.518;2023-06-19T18:16:36;4.55;;;2.97;;
65715;SDS011;63484;52.054;8.518;2023-06-19T18:21:40;3.75;;;3.10;;
65715;SDS011;63484;52.054;8.518;2023-06-19T18:26:41;6.95;;;4.10;;
65715;SDS011;63484;52.054;8.518;2023-06-19T18:31:44;4.28;;;3.42;;
65715;SDS011;63484;52.054;8.518;2023-06-19T18:36:46;6.60;;;3.20;;
65715;SDS011;63484;52.054;8.518;2023-06-19T18:41:51;12.32;;;4.57;;
65715;SDS011;63484;52.054;8.518;2023-06-19T18:51:57;4.40;;;3.00;;
65715;SDS011;63484;52.054;8.518;2023-06-19T18:56:58;7.72;;;3.30;;
65715;SDS011;63484;52.054;8.518;2023-06-19T19:02:01;4.90;;;3.42;;
65715;SDS011;63484;52.054;8.518;2023-06-19T19:07:07;8.10;;;4.07;;
65715;SDS011;63484;52.054;8.518;2023-06-19T19:12:09;4.75;;;3.50;;
65715;SDS011;63484;52.054;8.518;2023-06-19T19:17:12;3.60;;;3.03;;
65715;SDS011;63484;52.054;8.518;2023-06-19T19:27:15;5.32;;;3.50;;
65715;SDS011;63484;52.054;8.518;2023-06-19T19:32:21;6.35;;;3.72;;
65715;SDS011;63484;52.054;8.518;2023-06-19T19:37:25;7.40;;;3.60;;
65715;SDS011;63484;52.054;8.518;2023-06-19T19:42:28;6.32;;;3.90;;
65715;SDS011;63484;52.054;8.518;2023-06-19T19:47:31;7.60;;;4.07;;
65715;SDS011;63484;52.054;8.518;2023-06-19T19:52:32;6.25;;;3.92;;
65715;SDS011;63484;52.054;8.518;2023-06-19T19:57:34;8.57;;;4.00;;
65715;SDS011;63484;52.054;8.518;2023-06-19T20:02:37;5.22;;;3.90;;
65715;SDS011;63484;52.054;8.518;2023-06-19T20:07:39;5.97;;;3.72;;
65715;SDS011;63484;52.054;8.518;2023-06-19T20:12:40;7.72;;;4.30;;
65715;SDS011;63484;52.054;8.518;2023-06-19T20:17:43;6.45;;;4.10;;
65715;SDS011;63484;52.054;8.518;2023-06-19T20:22:45;5.60;;;3.88;;
65715;SDS011;63484;52.054;8.518;2023-06-19T20:27:47;7.97;;;4.20;;
65715;SDS011;63484;52.054;8.518;2023-06-19T20:32:50;9.98;;;4.30;;
65715;SDS011;63484;52.054;8.518;2023-06-19T20:37:52;9.20;;;4.90;;
65715;SDS011;63484;52.054;8.518;2023-06-19T20:42:53;10.52;;;5.75;;
65715;SDS011;63484;52.054;8.518;2023-06-19T20:47:56;5.88;;;4.35;;
65715;SDS011;63484;52.054;8.518;2023-06-19T20:52:58;6.47;;;4.30;;
65715;SDS011;63484;52.054;8.518;2023-06-19T20:58:00;6.63;;;4.10;;
65715;SDS011;63484;52.054;8.518;2023-06-19T21:03:05;5.82;;;4.10;;
65715;SDS011;63484;52.054;8.518;2023-06-19T21:08:07;6.68;;;4.25;;
65715;SDS011;63484;52.054;8.518;2023-06-19T21:13:09;8.10;;;4.93;;
65715;SDS011;63484;52.054;8.518;2023-06-19T21:18:12;7.93;;;4.70;;
65715;SDS011;63484;52.054;8.518;2023-06-19T21:23:17;5.97;;;4.85;;
65715;SDS011;63484;52.054;8.518;2023-06-19T21:28:19;8.02;;;4.53;;
65715;SDS011;63484;52.054;8.518;2023-06-19T21:33:22;5.95;;;4.40;;
65715;SDS011;63484;52.054;8.518;2023-06-19T21:38:26;6.78;;;4.70;;
65715;SDS011;63484;52.054;8.518;2023-06-19T21:43:28;6.53;;;4.38;;
65715;SDS011;63484;52.054;8.518;2023-06-19T21:48:31;8.30;;;5.40;;
65715;SDS011;63484;52.054;8.518;2023-06-19T21:53:33;7.35;;;4.35;;
65715;SDS011;63484;52.054;8.518;2023-06-19T21:58:34;6.13;;;5.15;;
65715;SDS011;63484;52.054;8.518;2023-06-19T22:03:37;19.80;;;10.68;;
65715;SDS011;63484;52.054;8.518;2023-06-19T22:08:39;7.13;;;5.32;;
65715;SDS011;63484;52.054;8.518;2023-06-19T22:13:41;29.05;;;13.52;;
65715;SDS011;63484;52.054;8.518;2023-06-19T22:18:44;15.80;;;9.10;;
65715;SDS011;63484;52.054;8.518;2023-06-19T22:23:45;11.38;;;5.50;;
65715;SDS011;63484;52.054;8.518;2023-06-19T22:28:47;7.65;;;5.03;;
65715;SDS011;63484;52.054;8.518;2023-06-19T22:33:50;16.88;;;8.63;;
65715;SDS011;63484;52.054;8.518;2023-06-19T22:38:52;9.55;;;5.30;;
65715;SDS011;63484;52.054;8.518;2023-06-19T22:43:54;12.32;;;4.88;;
65715;SDS011;63484;52.054;8.518;2023-06-19T22:48:57;8.50;;;5.80;;
65715;SDS011;63484;52.054;8.518;2023-06-19T22:53:59;9.05;;;5.22;;
65715;SDS011;63484;52.054;8.518;2023-06-19T22:59:00;8.07;;;5.43;;
65715;SDS011;63484;52.054;8.518;2023-06-19T23:04:06;8.45;;;5.90;;
65715;SDS011;63484;52.054;8.518;2023-06-19T23:09:11;8.52;;;5.63;;
65715;SDS011;63484;52.054;8.518;2023-06-19T23:14:13;8.32;;;5.88;;
65715;SDS011;63484;52.054;8.518;2023-06-19T23:19:16;8.48;;;5.35;;
65715;SDS011;63484;52.054;8.518;2023-06-19T23:24:18;8.95;;;5.38;;
65715;SDS011;63484;52.054;8.518;2023-06-19T23:29:20;8.77;;;5.57;;
65715;SDS011;63484;52.054;8.518;2023-06-19T23:34:23;11.02;;;5.90;;
65715;SDS011;63484;52.054;8.518;2023-06-19T23:39:27;10.02;;;5.90;;
65715;SDS011;63484;52.054;8.518;2023-06-19T23:44:28;7.90;;;5.63;;
65715;SDS011;63484;52.054;8.518;2023-06-19T23:49:32;8.93;;;5.78;;
65715;SDS011;63484;52.054;8.518;2023-06-19T23:54:33;10.15;;;6.05;;
65715;SDS011;63484;52.054;8.518;2023-06-19T23:59:35;9.82;;;5.78;;
